Time;durP1;ratioP1;P1;durP2;ratioP2;P2;SDS_P1;SDS_P2;PMS_P1;PMS_P2;Temp;Humidity;BMP_temperature;BMP_pressure;BME280_temperature;BME280_humidity;BME280_pressure;Samples;Min_cycle;Max_cycle;Signal;HPM_P1;HPM_P2
2021/06/28 00:00:37;;;;;;;15.15;12.38;;;22.10;84.40;;;;;;5053824;28;20413;-74
2021/06/28 00:03:03;;;;;;;15.57;11.60;;;22.00;84.60;;;;;;5054508;28;20100;-74
2021/06/28 00:05:28;;;;;;;13.05;11.10;;;22.00;84.70;;;;;;5054057;28;20035;-74
2021/06/28 00:07:54;;;;;;;14.25;12.02;;;22.00;84.90;;;;;;5054655;28;20405;-74
2021/06/28 00:10:27;;;;;;;13.57;12.20;;;21.90;84.90;;;;;;5054290;28;20033;-76
2021/06/28 00:12:55;;;;;;;14.88;12.77;;;21.90;85.10;;;;;;5054331;28;20036;-73
2021/06/28 00:15:25;;;;;;;14.75;13.05;;;21.80;85.20;;;;;;5054209;28;20037;-74
2021/06/28 00:17:51;;;;;;;14.70;12.55;;;21.80;85.50;;;;;;5054560;28;20388;-74
2021/06/28 00:20:19;;;;;;;19.63;13.25;;;21.70;85.60;;;;;;5054217;28;20025;-74
2021/06/28 00:22:45;;;;;;;15.02;12.30;;;21.70;85.90;;;;;;5054184;28;20029;-74
2021/06/28 00:25:14;;;;;;;17.38;12.27;;;21.70;86.10;;;;;;5054168;28;20036;-73
2021/06/28 00:27:41;;;;;;;15.07;11.98;;;21.70;86.10;;;;;;5054165;28;20056;-73
2021/06/28 00:30:09;;;;;;;15.93;12.23;;;21.70;86.10;;;;;;5054093;28;20051;-74
2021/06/28 00:32:35;;;;;;;16.45;12.15;;;21.80;86.20;;;;;;5053920;28;20021;-73
2021/06/28 00:35:03;;;;;;;17.75;12.32;;;21.80;86.00;;;;;;5054032;28;20055;-74
2021/06/28 00:37:28;;;;;;;14.25;11.40;;;21.80;85.80;;;;;;5053851;28;20104;-74
2021/06/28 00:39:54;;;;;;;13.13;11.70;;;21.80;85.70;;;;;;5053979;28;20570;-73
2021/06/28 00:42:24;;;;;;;19.15;11.00;;;21.90;85.60;;;;;;5053963;28;20475;-73
2021/06/28 00:44:50;;;;;;;13.77;10.73;;;21.80;85.50;;;;;;5053825;28;20383;-74
2021/06/28 00:47:15;;;;;;;12.55;10.00;;;21.90;85.60;;;;;;5053550;28;20036;-74
2021/06/28 00:49:41;;;;;;;11.20;10.10;;;21.90;85.60;;;;;;5053449;28;20025;-74
2021/06/28 00:52:07;;;;;;;12.75;9.57;;;21.90;85.30;;;;;;5053507;28;20037;-74
2021/06/28 00:54:33;;;;;;;11.82;9.93;;;22.00;85.20;;;;;;5053639;28;20029;-74
2021/06/28 00:57:00;;;;;;;16.48;10.00;;;21.90;85.00;;;;;;5053261;28;20029;-74
2021/06/28 00:59:28;;;;;;;10.88;9.45;;;21.90;84.90;;;;;;5053218;28;20051;-74
2021/06/28 01:01:56;;;;;;;11.55;9.70;;;21.90;84.70;;;;;;5053619;28;20052;-74
2021/06/28 01:04:21;;;;;;;13.45;9.18;;;21.90;84.70;;;;;;5053638;28;20029;-74
2021/06/28 01:06:47;;;;;;;12.63;9.88;;;21.90;84.70;;;;;;5053382;28;20439;-74
2021/06/28 01:09:13;;;;;;;10.75;9.45;;;21.80;84.70;;;;;;5053465;28;20029;-74
2021/06/28 01:11:38;;;;;;;11.68;9.25;;;21.70;84.80;;;;;;5053172;28;20479;-74
2021/06/28 01:14:04;;;;;;;10.93;9.63;;;21.70;84.70;;;;;;5053030;28;20036;-74
2021/06/28 01:16:30;;;;;;;10.15;9.10;;;21.60;84.90;;;;;;5053393;28;20067;-75
2021/06/28 01:18:56;;;;;;;11.70;8.93;;;21.60;85.10;;;;;;5053455;28;20025;-75
2021/06/28 01:21:23;;;;;;;12.23;9.68;;;21.60;85.30;;;;;;5053394;28;20056;-74
2021/06/28 01:23:49;;;;;;;13.57;9.48;;;21.50;85.30;;;;;;5053636;28;20033;-75
2021/06/28 01:26:14;;;;;;;12.80;9.50;;;21.40;85.40;;;;;;5053293;28;20044;-75
2021/06/28 01:28:40;;;;;;;12.35;9.50;;;21.40;85.60;;;;;;5053040;28;20468;-75
2021/06/28 01:31:08;;;;;;;10.57;8.57;;;21.30;85.80;;;;;;5053238;28;20029;-76
2021/06/28 01:33:35;;;;;;;13.25;9.70;;;21.30;86.00;;;;;;5052388;28;20024;-76
2021/06/28 01:36:01;;;;;;;12.90;9.05;;;21.30;86.10;;;;;;5052017;28;20037;-74
2021/06/28 01:38:27;;;;;;;10.65;9.43;;;21.20;86.20;;;;;;5052577;28;20372;-75
2021/06/28 01:40:54;;;;;;;11.30;9.27;;;21.30;86.50;;;;;;5052964;28;20037;-75
2021/06/28 01:43:23;;;;;;;12.38;9.40;;;21.30;86.50;;;;;;5052974;28;20033;-75
2021/06/28 01:45:50;;;;;;;13.27;9.48;;;21.20;86.40;;;;;;5052663;28;20044;-76
2021/06/28 01:48:16;;;;;;;11.55;9.50;;;21.20;86.50;;;;;;5053126;28;20482;-75
2021/06/28 01:50:42;;;;;;;11.50;9.57;;;21.20;86.60;;;;;;5052965;28;20020;-75
2021/06/28 01:53:09;;;;;;;13.00;9.07;;;21.20;86.80;;;;;;5052508;28;20044;-75
2021/06/28 01:55:36;;;;;;;11.35;9.25;;;21.10;87.00;;;;;;5051899;28;20025;-75
2021/06/28 01:58:04;;;;;;;10.40;9.30;;;21.10;87.00;;;;;;5051879;28;20024;-75
2021/06/28 02:00:33;;;;;;;12.00;9.10;;;21.20;86.90;;;;;;5052609;28;20032;-75
2021/06/28 02:03:20;;;;;;;12.82;9.30;;;21.20;86.90;;;;;;5052722;28;20075;-75
2021/06/28 02:05:54;;;;;;;10.77;9.23;;;21.20;86.90;;;;;;5052597;28;20364;-75
2021/06/28 02:08:22;;;;;;;10.73;9.65;;;21.20;86.80;;;;;;5052977;28;20493;-75
2021/06/28 02:10:50;;;;;;;11.82;9.77;;;21.20;86.80;;;;;;5052905;28;20032;-75
2021/06/28 02:13:21;;;;;;;12.43;9.85;;;21.20;86.80;;;;;;5052640;28;20360;-76
2021/06/28 02:15:47;;;;;;;10.43;9.32;;;21.20;86.90;;;;;;5053086;28;20032;-75
2021/06/28 02:18:13;;;;;;;13.18;9.82;;;21.20;86.90;;;;;;5052370;28;20574;-75
2021/06/28 02:20:39;;;;;;;11.88;10.30;;;21.20;86.90;;;;;;5052804;28;20116;-75
2021/06/28 02:23:29;;;;;;;10.80;9.45;;;21.30;86.90;;;;;;5054717;28;20056;-74
2021/06/28 02:25:58;;;;;;;10.95;9.55;;;21.30;86.70;;;;;;5056478;28;20082;-75
2021/06/28 02:28:27;;;;;;;10.73;9.63;;;21.30;86.50;;;;;;5056584;28;20348;-74
2021/06/28 02:30:53;;;;;;;13.25;10.63;;;21.40;86.40;;;;;;5056549;28;20227;-75
2021/06/28 02:33:20;;;;;;;12.88;9.93;;;21.50;86.00;;;;;;5056568;28;20040;-74
2021/06/28 02:35:46;;;;;;;11.70;10.10;;;21.60;85.60;;;;;;5056236;28;20118;-75
2021/06/28 02:38:12;;;;;;;11.48;10.25;;;21.60;85.30;;;;;;5056458;28;20032;-75
2021/06/28 02:40:37;;;;;;;14.20;10.25;;;21.60;85.00;;;;;;5055947;28;20079;-75
2021/06/28 02:43:03;;;;;;;10.50;9.50;;;21.50;84.90;;;;;;5056827;28;20057;-75
2021/06/28 02:45:29;;;;;;;11.88;9.95;;;21.50;85.10;;;;;;5056179;28;20364;-75
2021/06/28 02:47:55;;;;;;;12.00;10.02;;;21.60;85.20;;;;;;5056245;28;20040;-75
2021/06/28 02:50:21;;;;;;;14.20;10.45;;;21.60;85.00;;;;;;5056292;28;20434;-74
2021/06/28 02:52:46;;;;;;;12.45;9.75;;;21.60;84.90;;;;;;5056083;28;20045;-74
2021/06/28 02:55:13;;;;;;;12.25;10.18;;;21.70;84.70;;;;;;5055849;28;20420;-74
2021/06/28 02:57:40;;;;;;;10.40;9.20;;;21.70;84.50;;;;;;5055787;28;20063;-74
2021/06/28 03:00:12;;;;;;;12.05;9.57;;;21.70;84.30;;;;;;5055927;28;20029;-74
2021/06/28 03:02:38;;;;;;;13.23;9.30;;;21.70;84.20;;;;;;5055420;28;20478;-74
2021/06/28 03:05:09;;;;;;;11.05;9.82;;;21.70;84.10;;;;;;5055722;28;20071;-74
2021/06/28 03:07:35;;;;;;;12.50;9.43;;;21.80;84.00;;;;;;5055728;28;20063;-74
2021/06/28 03:10:04;;;;;;;10.90;9.35;;;21.80;83.90;;;;;;5056145;28;20029;-74
2021/06/28 03:12:30;;;;;;;11.48;8.82;;;21.80;83.70;;;;;;5055596;28;20021;-75
2021/06/28 03:14:56;;;;;;;14.35;10.40;;;21.80;83.60;;;;;;5055754;28;20104;-74
2021/06/28 03:17:21;;;;;;;10.98;9.20;;;21.80;83.70;;;;;;5055177;28;20028;-74
2021/06/28 03:19:47;;;;;;;10.35;9.25;;;21.80;84.50;;;;;;5055394;28;20029;-75
2021/06/28 03:22:13;;;;;;;10.15;9.07;;;21.80;83.90;;;;;;5055267;28;20025;-75
2021/06/28 03:24:39;;;;;;;12.93;8.75;;;21.90;83.80;;;;;;5055478;28;20025;-75
2021/06/28 03:27:05;;;;;;;11.85;9.13;;;21.90;83.70;;;;;;5055585;28;20041;-74
2021/06/28 03:29:30;;;;;;;11.60;8.88;;;22.00;83.70;;;;;;5055138;28;20387;-76
2021/06/28 03:31:56;;;;;;;12.07;8.93;;;22.00;83.40;;;;;;5055619;28;20053;-75
2021/06/28 03:34:22;;;;;;;10.43;9.15;;;22.10;83.20;;;;;;5054320;28;20029;-75
2021/06/28 03:36:47;;;;;;;10.43;8.93;;;22.10;83.10;;;;;;5054860;28;20029;-74
2021/06/28 03:39:13;;;;;;;13.32;9.02;;;22.10;82.90;;;;;;5055155;28;20028;-74
2021/06/28 03:41:39;;;;;;;10.48;8.98;;;22.10;82.80;;;;;;5054955;28;20521;-74
2021/06/28 03:44:05;;;;;;;10.95;9.15;;;22.20;82.70;;;;;;5054869;28;20021;-75
2021/06/28 03:46:32;;;;;;;10.18;9.05;;;22.10;82.50;;;;;;5055006;28;20048;-78
2021/06/28 03:48:57;;;;;;;11.45;9.55;;;22.20;82.40;;;;;;5055388;28;20146;-74
2021/06/28 03:51:26;;;;;;;13.45;9.65;;;22.20;82.30;;;;;;5054902;28;20059;-74
2021/06/28 03:53:52;;;;;;;12.30;9.30;;;22.20;82.10;;;;;;5054971;28;20037;-74
2021/06/28 03:56:18;;;;;;;10.57;9.48;;;22.30;82.00;;;;;;5054921;28;20024;-75
2021/06/28 03:58:45;;;;;;;12.20;9.77;;;22.20;81.70;;;;;;5054515;28;20100;-75
2021/06/28 04:01:11;;;;;;;10.43;9.30;;;22.30;81.60;;;;;;5054752;28;20082;-75
2021/06/28 04:03:38;;;;;;;11.80;9.40;;;22.30;81.50;;;;;;5054604;28;20549;-74
2021/06/28 04:06:06;;;;;;;12.05;9.65;;;22.30;81.20;;;;;;5054316;28;20471;-73
2021/06/28 04:08:33;;;;;;;12.50;8.82;;;22.30;81.10;;;;;;5054508;28;20025;-73
2021/06/28 04:11:00;;;;;;;11.88;8.82;;;22.30;81.00;;;;;;5054565;28;20028;-74
2021/06/28 04:13:26;;;;;;;9.70;8.70;;;22.30;80.90;;;;;;5055706;28;20066;-74
2021/06/28 04:15:52;;;;;;;9.45;8.40;;;22.40;80.90;;;;;;5054438;28;20119;-74
2021/06/28 04:18:18;;;;;;;9.20;8.20;;;22.40;80.80;;;;;;5054402;28;20129;-74
2021/06/28 04:20:44;;;;;;;8.95;8.10;;;22.50;80.40;;;;;;5054378;28;20040;-74
2021/06/28 04:23:10;;;;;;;11.00;8.50;;;22.50;80.20;;;;;;5054789;28;20375;-74
2021/06/28 04:25:36;;;;;;;11.27;7.90;;;22.60;79.70;;;;;;5053953;28;20047;-74
2021/06/28 04:28:02;;;;;;;9.57;8.20;;;22.60;79.60;;;;;;5054427;28;20025;-74
2021/06/28 04:30:28;;;;;;;9.40;7.70;;;22.70;79.20;;;;;;5054387;28;20021;-74
2021/06/28 04:32:54;;;;;;;8.93;7.57;;;22.70;79.10;;;;;;5054039;28;20226;-74
2021/06/28 04:35:25;;;;;;;9.75;7.32;;;22.80;78.80;;;;;;5054072;28;20459;-74
2021/06/28 04:37:51;;;;;;;8.38;7.35;;;22.80;78.70;;;;;;5053811;28;20486;-74
2021/06/28 04:40:19;;;;;;;8.98;7.32;;;22.90;78.30;;;;;;5053969;28;20414;-74
2021/06/28 04:42:45;;;;;;;8.73;7.15;;;22.90;77.70;;;;;;5052748;28;20052;-74
2021/06/28 04:45:12;;;;;;;8.25;7.45;;;22.90;77.40;;;;;;5051798;28;20454;-75
2021/06/28 04:47:38;;;;;;;9.77;7.22;;;22.90;78.00;;;;;;5052639;28;20060;-76
2021/06/28 04:50:05;;;;;;;8.85;7.90;;;22.80;77.40;;;;;;5052651;28;20048;-75
2021/06/28 04:52:32;;;;;;;12.18;8.10;;;22.80;77.40;;;;;;5052466;28;20385;-76
2021/06/28 04:54:59;;;;;;;8.32;7.47;;;22.80;77.40;;;;;;5052549;28;20025;-75
2021/06/28 04:57:25;;;;;;;9.38;7.07;;;22.80;77.30;;;;;;5052757;28;20100;-76
2021/06/28 04:59:51;;;;;;;8.52;7.63;;;22.80;77.00;;;;;;5052498;28;20154;-76
2021/06/28 05:02:16;;;;;;;9.88;7.82;;;22.80;77.00;;;;;;5052491;28;20029;-75
2021/06/28 05:04:42;;;;;;;9.43;7.65;;;22.90;76.80;;;;;;5052219;28;20052;-75
2021/06/28 05:07:08;;;;;;;10.77;7.57;;;22.90;76.70;;;;;;5052236;28;20082;-75
2021/06/28 05:09:33;;;;;;;8.32;7.43;;;22.90;76.70;;;;;;5052458;28;20021;-75
2021/06/28 05:11:59;;;;;;;12.18;7.95;;;23.00;76.40;;;;;;5052017;28;20061;-77
2021/06/28 05:14:26;;;;;;;9.48;7.55;;;23.00;76.20;;;;;;5052257;28;20028;-75
2021/06/28 05:16:53;;;;;;;10.05;8.90;;;23.10;76.00;;;;;;5052718;28;20043;-75
2021/06/28 05:19:18;;;;;;;9.23;8.30;;;23.10;75.90;;;;;;5053096;28;20020;-75
2021/06/28 05:21:44;;;;;;;12.80;8.90;;;23.30;75.80;;;;;;5052757;28;20112;-75
2021/06/28 05:24:10;;;;;;;9.32;8.43;;;23.40;75.30;;;;;;5052894;28;20100;-75
2021/06/28 05:26:35;;;;;;;10.02;9.10;;;23.50;75.10;;;;;;5052623;28;20036;-75
2021/06/28 05:29:02;;;;;;;10.73;9.15;;;23.60;74.70;;;;;;5049954;28;20071;-75
2021/06/28 05:31:27;;;;;;;10.25;8.82;;;23.60;74.30;;;;;;5053332;28;20441;-75
2021/06/28 05:33:53;;;;;;;10.18;8.30;;;23.60;74.10;;;;;;5051993;28;20091;-76
2021/06/28 05:36:20;;;;;;;10.07;9.07;;;23.60;74.00;;;;;;5053360;28;20029;-75
2021/06/28 05:38:46;;;;;;;8.15;7.30;;;23.50;74.20;;;;;;5053198;28;20021;-76
2021/06/28 05:41:12;;;;;;;10.55;8.55;;;23.60;74.30;;;;;;5053198;28;20336;-75
2021/06/28 05:43:38;;;;;;;11.98;8.00;;;23.50;74.10;;;;;;5053079;28;20511;-77
2021/06/28 05:46:03;;;;;;;8.07;7.32;;;23.60;74.30;;;;;;5052868;28;20390;-74
2021/06/28 05:48:29;;;;;;;10.95;8.32;;;23.70;74.20;;;;;;5053342;28;20032;-74
2021/06/28 05:50:55;;;;;;;9.02;7.30;;;23.80;73.90;;;;;;5052718;28;20060;-75
2021/06/28 05:53:21;;;;;;;8.35;7.55;;;23.90;73.60;;;;;;5053391;28;20072;-77
2021/06/28 05:55:47;;;;;;;12.25;7.28;;;24.10;73.50;;;;;;5052864;28;20108;-76
2021/06/28 05:58:16;;;;;;;8.07;7.32;;;24.30;73.00;;;;;;5055431;28;20115;-76
2021/06/28 06:00:42;;;;;;;8.35;7.47;;;24.50;72.10;;;;;;5057398;28;20100;-75
2021/06/28 06:03:08;;;;;;;9.90;7.50;;;24.50;71.70;;;;;;5057145;28;20484;-76
2021/06/28 06:05:34;;;;;;;7.90;7.20;;;24.50;71.40;;;;;;5056818;28;20076;-76
2021/06/28 06:07:59;;;;;;;7.80;7.00;;;24.60;71.20;;;;;;5056975;28;20031;-75
2021/06/28 06:10:26;;;;;;;8.38;7.53;;;24.60;70.80;;;;;;5053784;28;20036;-76
2021/06/28 06:12:52;;;;;;;9.90;7.75;;;24.60;70.60;;;;;;5056492;28;20461;-75
2021/06/28 06:15:18;;;;;;;10.07;7.88;;;24.60;70.50;;;;;;5056817;28;20102;-76
2021/06/28 06:17:44;;;;;;;13.10;7.97;;;24.70;70.40;;;;;;5055870;28;20047;-75
2021/06/28 06:20:11;;;;;;;9.55;8.70;;;24.70;70.30;;;;;;5056757;28;20175;-74
2021/06/28 06:22:37;;;;;;;9.82;8.93;;;24.80;69.90;;;;;;5056228;28;20021;-75
2021/06/28 06:25:04;;;;;;;11.02;9.32;;;25.00;69.30;;;;;;5055998;28;20029;-75
2021/06/28 06:31:04;;;;;;;11.45;8.70;;;25.40;67.70;;;;;;5056319;28;20024;-76
2021/06/28 06:33:30;;;;;;;8.85;7.80;;;25.30;67.40;;;;;;5056377;28;20079;-75
2021/06/28 06:35:56;;;;;;;9.73;8.73;;;25.30;67.70;;;;;;5056156;28;20033;-76
2021/06/28 06:38:21;;;;;;;13.50;8.98;;;25.30;67.70;;;;;;5071256;28;20040;-74
2021/06/28 06:40:48;;;;;;;10.05;8.20;;;25.30;67.70;;;;;;5075913;28;20024;-77
2021/06/28 06:43:15;;;;;;;10.63;9.27;;;25.40;67.10;;;;;;5076028;28;20064;-75
2021/06/28 06:45:42;;;;;;;10.02;8.85;;;25.40;67.00;;;;;;5072965;28;20439;-76
2021/06/28 06:48:08;;;;;;;10.50;9.05;;;25.50;66.80;;;;;;5080159;28;20029;-75
2021/06/28 06:50:34;;;;;;;10.00;9.05;;;25.50;66.60;;;;;;5054730;28;20409;-77
2021/06/28 06:53:00;;;;;;;10.25;9.15;;;25.60;66.50;;;;;;5056173;28;20045;-76
2021/06/28 06:55:26;;;;;;;8.00;7.30;;;25.60;66.00;;;;;;5054759;28;20501;-76
2021/06/28 06:57:52;;;;;;;8.43;7.32;;;25.70;65.80;;;;;;5055866;28;20377;-77
2021/06/28 07:00:20;;;;;;;7.93;7.10;;;25.70;65.70;;;;;;5055765;28;20025;-76
2021/06/28 07:02:47;;;;;;;8.93;6.15;;;25.80;65.00;;;;;;5055932;28;20123;-77
2021/06/28 07:05:15;;;;;;;7.55;6.35;;;25.60;65.10;;;;;;5056025;28;20130;-76
2021/06/28 07:07:41;;;;;;;8.65;5.90;;;25.50;65.50;;;;;;5055626;28;20025;-76
2021/06/28 07:10:09;;;;;;;7.35;5.80;;;25.60;65.70;;;;;;5055143;28;20471;-76
2021/06/28 07:12:35;;;;;;;6.45;5.47;;;25.90;65.30;;;;;;5054264;28;20032;-76
2021/06/28 07:15:01;;;;;;;6.13;5.35;;;26.10;64.70;;;;;;5066070;28;20141;-76
2021/06/28 07:17:27;;;;;;;7.93;6.13;;;26.20;64.40;;;;;;5073172;28;20036;-75
2021/06/28 07:19:53;;;;;;;6.07;5.45;;;26.40;64.60;;;;;;5074679;28;20071;-76
2021/06/28 07:22:19;;;;;;;6.45;5.20;;;26.40;64.10;;;;;;5075053;28;20105;-76
2021/06/28 07:24:45;;;;;;;7.47;5.47;;;26.40;63.90;;;;;;5075378;28;20027;-76
2021/06/28 07:27:11;;;;;;;7.88;5.28;;;26.30;63.70;;;;;;5074110;28;20464;-76
2021/06/28 07:29:38;;;;;;;7.05;5.43;;;26.20;63.60;;;;;;5075185;28;20382;-75
2021/06/28 07:32:04;;;;;;;7.45;4.70;;;26.10;63.70;;;;;;5075122;28;20051;-74
2021/06/28 07:34:30;;;;;;;6.38;5.30;;;26.10;63.60;;;;;;5075303;28;20074;-75
2021/06/28 07:36:56;;;;;;;8.05;4.95;;;26.10;64.20;;;;;;5074838;28;20028;-76
2021/06/28 07:39:21;;;;;;;7.22;4.65;;;26.30;63.30;;;;;;5074963;28;20056;-75
2021/06/28 07:41:49;;;;;;;6.32;4.85;;;26.60;63.30;;;;;;5075197;28;20101;-76
2021/06/28 07:44:16;;;;;;;5.03;4.63;;;26.90;62.50;;;;;;5068865;28;20028;-77
2021/06/28 07:46:42;;;;;;;8.20;4.65;;;26.90;62.00;;;;;;5070921;28;20094;-77
2021/06/28 07:49:08;;;;;;;6.00;4.38;;;27.10;62.30;;;;;;5074643;28;20117;-76
2021/06/28 07:51:36;;;;;;;4.97;4.13;;;27.30;61.90;;;;;;5062018;28;20076;-75
2021/06/28 07:54:06;;;;;;;5.55;4.75;;;27.50;61.40;;;;;;5065411;28;20099;-76
2021/06/28 07:56:33;;;;;;;7.53;4.78;;;27.70;60.90;;;;;;5074790;28;20134;-76
2021/06/28 07:58:59;;;;;;;5.82;4.40;;;27.90;60.70;;;;;;5074420;28;20040;-75
2021/06/28 08:01:25;;;;;;;4.80;4.30;;;27.90;60.30;;;;;;5054763;28;20021;-75
2021/06/28 08:03:51;;;;;;;4.38;3.97;;;27.90;59.70;;;;;;5054772;28;20025;-76
2021/06/28 08:06:19;;;;;;;6.70;4.22;;;27.80;59.80;;;;;;5054740;28;20379;-75
2021/06/28 08:08:48;;;;;;;9.15;4.13;;;27.80;59.90;;;;;;5053400;28;20056;-76
2021/06/28 08:11:15;;;;;;;6.30;4.28;;;27.80;59.80;;;;;;5054516;28;20048;-76
2021/06/28 08:13:47;;;;;;;5.00;4.50;;;27.80;59.50;;;;;;5054674;28;20056;-75
2021/06/28 08:16:15;;;;;;;5.78;4.90;;;27.80;59.30;;;;;;5054399;28;20037;-77
2021/06/28 08:18:43;;;;;;;5.88;4.30;;;27.80;59.60;;;;;;5054618;28;20086;-77
2021/06/28 08:21:09;;;;;;;7.10;4.82;;;27.80;59.80;;;;;;5068965;28;20103;-76
2021/06/28 08:23:35;;;;;;;4.80;4.32;;;27.70;59.80;;;;;;5059842;28;20039;-76
2021/06/28 08:26:01;;;;;;;4.78;4.22;;;27.60;59.70;;;;;;5067728;28;20032;-75
2021/06/28 08:28:26;;;;;;;5.85;4.57;;;27.60;59.50;;;;;;5074063;28;20528;-75
2021/06/28 08:30:52;;;;;;;4.63;4.22;;;27.70;59.50;;;;;;5073839;28;20029;-74
2021/06/28 08:33:18;;;;;;;5.95;4.70;;;27.80;59.50;;;;;;5074301;28;20020;-76
2021/06/28 08:35:44;;;;;;;4.82;4.20;;;28.20;59.70;;;;;;5074119;28;20165;-76
2021/06/28 08:38:11;;;;;;;4.40;4.00;;;28.60;58.80;;;;;;5073886;28;20031;-75
2021/06/28 08:40:38;;;;;;;8.13;4.30;;;28.70;58.20;;;;;;5074202;28;20020;-76
2021/06/28 08:43:04;;;;;;;4.35;3.80;;;28.90;57.80;;;;;;5073914;28;20112;-76
2021/06/28 08:48:53;;;;;;;6.63;3.90;;;28.90;57.00;;;;;;5059384;28;20098;-78
2021/06/28 08:51:20;;;;;;;5.57;4.28;;;28.70;57.40;;;;;;5065352;28;20082;-78
2021/06/28 08:53:52;;;;;;;5.32;4.38;;;28.80;57.20;;;;;;5073834;28;20029;-77
2021/06/28 08:56:18;;;;;;;7.28;4.25;;;28.90;57.20;;;;;;5073542;28;20416;-75
2021/06/28 08:58:44;;;;;;;4.10;3.78;;;29.20;56.80;;;;;;5073825;28;20082;-75
2021/06/28 09:01:11;;;;;;;5.97;4.05;;;29.20;56.60;;;;;;5073811;28;20039;-75
2021/06/28 09:03:37;;;;;;;4.55;3.90;;;29.20;56.40;;;;;;5073521;28;20031;-75
2021/06/28 09:06:10;;;;;;;4.47;4.07;;;29.20;56.30;;;;;;5073428;28;20471;-76
2021/06/28 09:08:51;;;;;;;4.30;3.90;;;29.30;56.20;;;;;;5073793;28;20043;-74
2021/06/28 09:11:18;;;;;;;4.43;3.85;;;29.50;55.90;;;;;;5074055;28;20432;-75
2021/06/28 09:13:46;;;;;;;5.13;4.20;;;29.90;55.70;;;;;;5073457;28;20094;-76
2021/06/28 09:16:16;;;;;;;4.47;3.97;;;30.20;54.90;;;;;;5073971;28;20431;-75
2021/06/28 09:19:06;;;;;;;4.07;3.53;;;30.00;54.20;;;;;;5073539;28;20086;-76
2021/06/28 09:21:40;;;;;;;5.13;4.10;;;29.80;54.30;;;;;;5073742;28;20033;-74
2021/06/28 09:24:23;;;;;;;4.60;3.75;;;29.60;54.70;;;;;;5073259;28;20378;-74
2021/06/28 09:26:49;;;;;;;4.93;3.58;;;29.50;55.20;;;;;;5073430;28;20115;-73
2021/06/28 09:29:15;;;;;;;4.65;3.80;;;29.70;54.60;;;;;;5088997;28;20096;-75
2021/06/28 09:31:46;;;;;;;4.22;3.72;;;30.10;54.20;;;;;;5088924;28;20146;-76
2021/06/28 09:34:18;;;;;;;6.07;3.72;;;30.70;53.60;;;;;;5071982;28;20039;-75
2021/06/28 09:36:50;;;;;;;5.78;3.78;;;31.30;52.90;;;;;;5073346;28;20032;-74
2021/06/28 09:39:27;;;;;;;7.93;3.63;;;31.80;52.00;;;;;;5077805;28;20036;-76
2021/06/28 09:41:58;;;;;;;6.25;4.28;;;32.10;51.50;;;;;;5080620;28;20086;-76
2021/06/28 09:44:27;;;;;;;4.45;3.60;;;32.50;50.90;;;;;;5082220;28;20113;-76
2021/06/28 09:47:03;;;;;;;7.00;4.00;;;32.50;50.20;;;;;;5083439;28;20432;-76
2021/06/28 09:49:29;;;;;;;4.38;3.85;;;32.30;49.80;;;;;;5085532;28;20025;-75
2021/06/28 09:51:55;;;;;;;5.05;3.70;;;32.10;50.20;;;;;;5082674;28;20036;-76
2021/06/28 09:54:21;;;;;;;4.80;3.72;;;31.80;50.50;;;;;;5080834;28;20055;-76
2021/06/28 09:56:53;;;;;;;5.47;3.83;;;31.50;50.70;;;;;;5078477;28;20062;-76
2021/06/28 09:59:35;;;;;;;6.20;4.00;;;31.40;50.90;;;;;;5087998;28;20017;-78
2021/06/28 10:02:11;;;;;;;4.20;3.80;;;31.30;50.70;;;;;;5070536;28;20044;-76
2021/06/28 10:07:19;;;;;;;5.47;3.50;;;31.30;51.20;;;;;;5074585;28;20532;-75
2021/06/28 10:09:45;;;;;;;4.20;3.83;;;31.70;51.20;;;;;;5075810;28;20029;-77
2021/06/28 10:12:19;;;;;;;5.68;3.90;;;31.70;51.00;;;;;;5093111;28;20107;-76
2021/06/28 10:14:45;;;;;;;7.90;4.53;;;31.60;51.40;;;;;;5082702;28;20031;-77
2021/06/28 10:17:11;;;;;;;6.13;3.90;;;31.80;51.20;;;;;;5081223;28;20050;-75
2021/06/28 10:19:40;;;;;;;3.75;3.25;;;32.50;50.30;;;;;;5083032;28;20095;-76
2021/06/28 10:22:07;;;;;;;4.72;3.63;;;32.60;49.60;;;;;;5086850;28;20793;-78
2021/06/28 10:24:33;;;;;;;6.72;3.67;;;32.30;48.90;;;;;;5070206;28;20467;-78
2021/06/28 10:26:59;;;;;;;4.93;3.67;;;32.10;49.20;;;;;;5072845;28;20035;-78
2021/06/28 10:29:24;;;;;;;5.15;4.05;;;32.20;49.00;;;;;;5080148;28;20024;-76
2021/06/28 10:31:52;;;;;;;4.28;3.83;;;32.30;49.20;;;;;;5081553;28;20428;-76
2021/06/28 10:34:18;;;;;;;4.60;4.00;;;32.60;49.30;;;;;;5081579;28;20070;-76
2021/06/28 10:36:45;;;;;;;11.45;4.10;;;32.50;49.30;;;;;;5082770;28;20412;-76
2021/06/28 10:39:30;;;;;;;5.97;4.05;;;32.40;49.70;;;;;;5081099;28;20455;-77
2021/06/28 10:41:59;;;;;;;3.78;3.40;;;32.80;49.20;;;;;;5081307;28;20029;-75
2021/06/28 10:44:44;;;;;;;6.57;3.90;;;33.60;48.20;;;;;;5075406;28;20035;-78
2021/06/28 10:47:10;;;;;;;5.13;4.10;;;34.20;47.40;;;;;;5081867;28;20124;-78
2021/06/28 10:49:52;;;;;;;7.18;4.15;;;34.30;47.10;;;;;;5078251;28;20394;-79
2021/06/28 10:52:37;;;;;;;5.43;4.00;;;34.10;47.10;;;;;;5084496;28;20440;-77
2021/06/28 10:55:18;;;;;;;3.88;3.58;;;33.80;47.20;;;;;;5085607;28;20370;-77
2021/06/28 10:57:47;;;;;;;4.95;3.80;;;34.00;47.20;;;;;;5081477;28;20032;-77
2021/06/28 11:00:13;;;;;;;4.13;3.42;;;34.10;46.90;;;;;;5082779;28;20055;-77
2021/06/28 11:02:41;;;;;;;7.78;3.65;;;33.70;46.90;;;;;;5086002;28;20459;-77
2021/06/28 11:05:09;;;;;;;4.47;3.72;;;33.10;47.20;;;;;;5077633;28;20025;-77
2021/06/28 11:07:44;;;;;;;5.53;4.18;;;32.50;47.60;;;;;;5084160;28;20020;-77
2021/06/28 11:10:13;;;;;;;4.15;3.75;;;32.20;48.60;;;;;;5081889;28;20474;-77
2021/06/28 11:12:39;;;;;;;5.57;4.47;;;32.70;48.70;;;;;;5083612;28;20486;-77
2021/06/28 11:15:09;;;;;;;4.38;3.90;;;33.50;48.30;;;;;;5082814;28;20056;-78
2021/06/28 11:17:46;;;;;;;6.57;4.70;;;34.40;46.90;;;;;;5083717;28;20046;-77
2021/06/28 11:20:38;;;;;;;4.82;4.15;;;34.70;46.00;;;;;;5078312;28;20383;-76
2021/06/28 11:23:19;;;;;;;5.95;3.70;;;34.10;46.00;;;;;;5080810;28;20516;-77
2021/06/28 11:25:55;;;;;;;4.78;4.10;;;33.70;46.40;;;;;;5085492;28;20024;-78
2021/06/28 11:28:36;;;;;;;3.20;3.00;;;33.90;46.50;;;;;;5085650;28;20028;-79
2021/06/28 11:31:07;;;;;;;4.45;4.03;;;33.70;46.20;;;;;;5084994;28;20032;-79
2021/06/28 11:33:50;;;;;;;5.55;3.75;;;33.20;46.70;;;;;;5085430;28;20021;-76
2021/06/28 11:36:33;;;;;;;4.67;3.80;;;32.70;47.50;;;;;;5083401;28;20028;-76
2021/06/28 11:39:02;;;;;;;4.43;3.45;;;33.00;48.00;;;;;;5083357;28;20103;-77
2021/06/28 11:41:30;;;;;;;4.07;3.58;;;33.20;47.60;;;;;;5081154;28;20021;-77
2021/06/28 11:44:03;;;;;;;4.07;3.78;;;33.10;47.60;;;;;;5084038;28;20027;-78
2021/06/28 11:46:33;;;;;;;6.88;3.72;;;32.90;47.70;;;;;;5081061;28;20025;-77
2021/06/28 11:49:02;;;;;;;8.40;4.10;;;32.80;47.90;;;;;;5083297;28;20043;-77
2021/06/28 11:51:29;;;;;;;3.90;3.60;;;32.60;48.20;;;;;;5080966;28;20051;-77
2021/06/28 11:54:01;;;;;;;3.88;3.47;;;33.20;48.40;;;;;;5083637;28;20024;-77
2021/06/28 11:56:30;;;;;;;6.63;3.97;;;34.00;47.60;;;;;;5079743;28;20146;-77
2021/06/28 11:58:57;;;;;;;4.00;3.60;;;34.30;46.90;;;;;;5083591;28;20043;-78
2021/06/28 12:01:30;;;;;;;4.78;4.10;;;34.10;46.80;;;;;;5084633;28;20046;-78
2021/06/28 12:03:57;;;;;;;5.53;4.18;;;33.70;47.20;;;;;;5084219;28;20374;-78
2021/06/28 12:06:28;;;;;;;4.65;4.18;;;33.20;47.70;;;;;;5082518;28;20030;-78
2021/06/28 12:09:14;;;;;;;5.35;3.63;;;32.90;48.10;;;;;;5085500;28;20374;-79
2021/06/28 12:11:55;;;;;;;6.78;3.90;;;33.60;47.60;;;;;;5081633;28;20355;-78
2021/06/28 12:14:30;;;;;;;4.78;3.58;;;33.80;46.90;;;;;;5082549;28;20478;-78
2021/06/28 12:16:56;;;;;;;5.55;4.35;;;33.70;46.70;;;;;;5080776;28;20028;-78
2021/06/28 12:19:22;;;;;;;6.28;4.10;;;33.40;46.80;;;;;;5079627;28;20031;-77
2021/06/28 12:21:49;;;;;;;4.63;3.72;;;32.90;46.90;;;;;;5083244;28;20047;-78
2021/06/28 12:24:17;;;;;;;7.18;3.85;;;32.60;47.50;;;;;;5081252;28;20020;-77
2021/06/28 12:27:16;;;;;;;4.80;3.67;;;32.50;47.90;;;;;;5082278;28;20040;-76
2021/06/28 12:29:50;;;;;;;4.60;3.70;;;33.50;47.40;;;;;;5083458;28;20040;-77
2021/06/28 12:32:27;;;;;;;4.95;3.90;;;35.00;46.20;;;;;;5082894;28;20051;-77
2021/06/28 12:34:57;;;;;;;5.97;3.55;;;35.60;45.00;;;;;;5081286;28;20028;-77
2021/06/28 12:37:34;;;;;;;5.22;3.55;;;35.50;44.20;;;;;;5076358;28;20032;-77
2021/06/28 12:40:36;;;;;;;3.90;3.47;;;35.30;44.90;;;;;;5080990;28;20107;-78
2021/06/28 12:43:16;;;;;;;3.70;3.45;;;35.50;44.40;;;;;;5074511;28;20167;-78
2021/06/28 12:45:49;;;;;;;3.90;3.60;;;36.00;44.10;;;;;;5083162;28;20038;-79
2021/06/28 12:48:23;;;;;;;4.97;3.70;;;35.90;43.80;;;;;;5081471;28;20494;-77
2021/06/28 12:50:56;;;;;;;3.80;3.47;;;35.30;44.10;;;;;;5079670;28;20074;-77
2021/06/28 12:53:22;;;;;;;4.68;3.60;;;34.50;44.60;;;;;;5081511;28;20048;-77
2021/06/28 12:55:50;;;;;;;3.20;2.95;;;33.90;45.10;;;;;;5079429;28;20382;-77